Time;durP1;ratioP1;P1;durP2;ratioP2;P2;SDS_P1;SDS_P2;PMS_P1;PMS_P2;Temp;Humidity;BMP_temperature;BMP_pressure;BME280_temperature;BME280_humidity;BME280_pressure;Samples;Min_cycle;Max_cycle;Signal;HPM_P1;HPM_P2
2023/04/14 00:00:55;;;;;;;;;;;;;;;22.35;37.42;100033.36;103839;1288;62455;-84
2023/04/14 00:03:21;;;;;;;;;;;;;;;22.34;37.39;100028.94;103813;1283;61484;-84
2023/04/14 00:05:46;;;;;;;;;;;;;;;22.34;37.44;100031.09;103943;1286;62315;-83
2023/04/14 00:08:11;;;;;;;;;;;;;;;22.34;37.45;100027.54;103881;1283;62519;-83
2023/04/14 00:10:38;;;;;;;;;;;;;;;22.34;37.34;100028.44;103908;1285;61326;-83
2023/04/14 00:13:04;;;;;;;;;;;;;;;22.33;37.44;100032.95;103792;1285;61400;-84
2023/04/14 00:15:29;;;;;;;;;;;;;;;22.33;37.36;100035.80;103918;1284;61308;-83
2023/04/14 00:17:56;;;;;;;;;;;;;;;22.33;37.43;100036.03;103929;1285;61487;-83
2023/04/14 00:20:21;;;;;;;;;;;;;;;22.33;37.49;100036.57;103956;1284;61340;-84
2023/04/14 00:22:47;;;;;;;;;;;;;;;22.33;37.41;100034.27;103924;1285;62490;-83
2023/04/14 00:25:14;;;;;;;;;;;;;;;22.32;37.48;100037.02;103795;1285;73438;-84
2023/04/14 00:27:40;;;;;;;;;;;;;;;22.32;37.44;100038.80;103867;1285;75686;-83
2023/04/14 00:30:05;;;;;;;;;;;;;;;22.33;37.30;100038.77;104007;1284;61327;-84
2023/04/14 00:32:33;;;;;;;;;;;;;;;22.32;37.36;100031.45;103728;1283;61391;-84
2023/04/14 00:35:01;;;;;;;;;;;;;;;22.32;37.42;100030.42;103681;1288;61304;-84
2023/04/14 00:37:27;;;;;;;;;;;;;;;22.32;37.38;100027.17;103678;1285;74739;-85
2023/04/14 00:39:52;;;;;;;;;;;;;;;22.31;37.25;100024.34;103903;1285;62441;-83
2023/04/14 00:42:18;;;;;;;;;;;;;;;22.31;37.28;100026.55;103876;1283;61445;-84
2023/04/14 00:44:44;;;;;;;;;;;;;;;22.31;37.34;100031.17;103798;1288;61394;-83
2023/04/14 00:47:10;;;;;;;;;;;;;;;22.31;37.33;100029.09;103854;1288;61356;-83
2023/04/14 00:49:36;;;;;;;;;;;;;;;22.31;37.47;100029.63;104015;1283;74707;-83
2023/04/14 00:52:02;;;;;;;;;;;;;;;22.30;37.41;100028.92;104173;1283;62103;-83
2023/04/14 00:54:27;;;;;;;;;;;;;;;22.31;37.33;100029.45;103816;1288;61352;-81
2023/04/14 00:56:53;;;;;;;;;;;;;;;22.30;37.41;100029.45;103799;1285;61400;-81
2023/04/14 00:59:19;;;;;;;;;;;;;;;22.30;37.38;100032.20;103794;1283;61394;-83
2023/04/14 01:01:45;;;;;;;;;;;;;;;22.30;37.38;100030.76;103980;1285;62113;-82
2023/04/14 01:04:11;;;;;;;;;;;;;;;22.30;37.36;100028.77;103750;1285;61260;-83
2023/04/14 01:06:37;;;;;;;;;;;;;;;22.29;37.24;100022.75;103826;1284;61375;-84
2023/04/14 01:09:02;;;;;;;;;;;;;;;22.29;37.34;100022.21;103740;1286;61695;-83
2023/04/14 01:11:51;;;;;;;;;;;;;;;22.29;37.34;100021.48;103862;1285;62012;-83
2023/04/14 01:14:21;;;;;;;;;;;;;;;22.29;37.38;100021.36;103355;1292;61418;-83
2023/04/14 01:16:49;;;;;;;;;;;;;;;22.29;37.32;100016.16;103159;1289;61573;-83
2023/04/14 01:19:26;;;;;;;;;;;;;;;22.28;37.40;100014.08;103217;1290;72719;-83
2023/04/14 01:21:53;;;;;;;;;;;;;;;22.28;37.33;100014.61;103223;1292;74529;-83
2023/04/14 01:24:29;;;;;;;;;;;;;;;22.28;37.28;100009.58;103272;1290;61822;-84
2023/04/14 01:27:00;;;;;;;;;;;;;;;22.27;37.37;100012.65;103207;1292;62533;-84
2023/04/14 01:29:32;;;;;;;;;;;;;;;22.27;37.32;100011.60;103227;1292;73496;-84
2023/04/14 01:32:01;;;;;;;;;;;;;;;22.27;37.34;100010.16;103313;1290;74879;-84
2023/04/14 01:34:32;;;;;;;;;;;;;;;22.27;37.26;100012.14;103137;1291;61468;-83
2023/04/14 01:37:03;;;;;;;;;;;;;;;22.26;37.41;100007.73;103230;1289;61358;-83
2023/04/14 01:39:30;;;;;;;;;;;;;;;22.26;37.44;100003.61;103152;1291;74853;-83
2023/04/14 01:41:57;;;;;;;;;;;;;;;22.27;37.29;100003.75;103157;1290;75806;-84
2023/04/14 01:44:22;;;;;;;;;;;;;;;22.26;37.35;100007.05;103329;1291;61454;-83
2023/04/14 01:46:49;;;;;;;;;;;;;;;22.26;37.36;100007.59;103189;1291;61514;-84
2023/04/14 01:49:15;;;;;;;;;;;;;;;22.25;37.26;100008.36;103225;1292;61332;-84
2023/04/14 01:51:41;;;;;;;;;;;;;;;22.25;37.28;100011.78;103453;1286;62371;-83
2023/04/14 01:54:08;;;;;;;;;;;;;;;22.25;37.30;100012.72;103943;1288;61330;-83
2023/04/14 01:56:35;;;;;;;;;;;;;;;22.25;37.29;100010.02;103699;1285;62567;-84
2023/04/14 01:59:00;;;;;;;;;;;;;;;22.24;37.31;100012.23;103718;1283;61356;-83
2023/04/14 02:01:26;;;;;;;;;;;;;;;22.24;37.36;100004.90;103925;1283;62155;-84
2023/04/14 02:03:52;;;;;;;;;;;;;;;22.24;37.34;100002.77;103869;1286;61452;-83
2023/04/14 02:06:17;;;;;;;;;;;;;;;22.24;37.30;100002.42;103997;1283;61262;-83
2023/04/14 02:08:42;;;;;;;;;;;;;;;22.23;37.41;99999.77;103760;1285;61996;-83
2023/04/14 02:11:08;;;;;;;;;;;;;;;22.23;37.31;100004.80;103946;1285;61525;-84
2023/04/14 02:13:34;;;;;;;;;;;;;;;22.23;37.31;100005.91;103780;1286;61444;-84
2023/04/14 02:16:01;;;;;;;;;;;;;;;22.23;37.30;100005.20;103761;1286;62514;-84
2023/04/14 02:18:28;;;;;;;;;;;;;;;22.23;37.31;100008.63;103772;1286;61381;-82
2023/04/14 02:20:54;;;;;;;;;;;;;;;22.22;37.30;100014.60;103944;1286;62470;-83
2023/04/14 02:23:20;;;;;;;;;;;;;;;22.22;37.26;100012.63;103860;1283;61429;-84
2023/04/14 02:25:53;;;;;;;;;;;;;;;22.21;37.31;100007.64;103782;1283;62147;-84
2023/04/14 02:28:19;;;;;;;;;;;;;;;22.21;37.27;100008.71;103540;1290;61433;-84
2023/04/14 02:30:47;;;;;;;;;;;;;;;22.21;37.35;100008.77;103903;1288;61476;-84
2023/04/14 02:33:15;;;;;;;;;;;;;;;22.21;37.26;100003.75;103737;1288;75368;-84
2023/04/14 02:35:43;;;;;;;;;;;;;;;22.20;37.18;100000.81;103783;1288;62501;-83
2023/04/14 02:38:34;;;;;;;;;;;;;;;22.20;37.32;99998.86;103943;1283;61276;-84
2023/04/14 02:41:01;;;;;;;;;;;;;;;22.20;37.37;99998.12;103893;1286;72445;-84
2023/04/14 02:43:30;;;;;;;;;;;;;;;22.20;37.32;99997.05;103950;1284;74859;-84
2023/04/14 02:45:56;;;;;;;;;;;;;;;22.19;37.31;99996.93;103772;1288;61913;-84
2023/04/14 02:48:22;;;;;;;;;;;;;;;22.19;37.33;99997.64;103814;1285;62968;-84
2023/04/14 02:50:49;;;;;;;;;;;;;;;22.19;37.17;99999.08;103793;1284;62327;-84
2023/04/14 02:53:19;;;;;;;;;;;;;;;22.19;37.29;100000.52;103812;1288;61326;-83
2023/04/14 02:55:45;;;;;;;;;;;;;;;22.18;37.27;100005.23;103949;1285;61467;-83
2023/04/14 02:58:11;;;;;;;;;;;;;;;22.19;37.30;100008.24;103726;1283;61731;-83
2023/04/14 03:00:37;;;;;;;;;;;;;;;22.18;37.33;100009.52;103731;1286;62009;-83
2023/04/14 03:03:02;;;;;;;;;;;;;;;22.18;37.25;100005.45;103723;1286;62464;-83
2023/04/14 03:05:28;;;;;;;;;;;;;;;22.18;37.26;100004.91;103830;1286;61374;-84
2023/04/14 03:07:53;;;;;;;;;;;;;;;22.18;37.30;100007.79;103843;1288;61404;-84
2023/04/14 03:10:19;;;;;;;;;;;;;;;22.17;37.30;100012.68;104111;1285;61481;-84
2023/04/14 03:12:45;;;;;;;;;;;;;;;22.17;37.22;100017.89;103925;1288;61383;-84
2023/04/14 03:15:10;;;;;;;;;;;;;;;22.17;37.23;100019.51;103775;1285;61433;-84
2023/04/14 03:17:36;;;;;;;;;;;;;;;22.17;37.31;100011.12;103922;1286;61394;-83
2023/04/14 03:20:02;;;;;;;;;;;;;;;22.16;37.29;100007.55;103865;1283;61300;-82
2023/04/14 03:22:28;;;;;;;;;;;;;;;22.17;37.24;100010.95;103850;1285;62577;-82
2023/04/14 03:24:57;;;;;;;;;;;;;;;22.16;37.21;100012.42;103784;1288;61377;-83
2023/04/14 03:27:25;;;;;;;;;;;;;;;22.16;37.25;100014.77;104060;1284;74264;-83
2023/04/14 03:29:54;;;;;;;;;;;;;;;22.16;37.24;100014.27;103977;1283;61320;-82
2023/04/14 03:32:21;;;;;;;;;;;;;;;22.16;37.34;100005.30;104144;1285;61388;-83
2023/04/14 03:34:47;;;;;;;;;;;;;;;22.15;37.29;100004.41;103808;1285;72524;-83
2023/04/14 03:37:15;;;;;;;;;;;;;;;22.16;37.32;100004.41;103902;1285;75333;-82
2023/04/14 03:39:40;;;;;;;;;;;;;;;22.15;37.37;100006.95;104021;1284;62529;-83
2023/04/14 03:42:12;;;;;;;;;;;;;;;22.15;37.25;100009.84;103730;1288;61366;-83
2023/04/14 03:44:41;;;;;;;;;;;;;;;22.15;37.25;100009.88;103698;1286;72547;-83
2023/04/14 03:47:09;;;;;;;;;;;;;;;22.14;37.27;100009.89;103767;1285;74530;-84
2023/04/14 03:49:37;;;;;;;;;;;;;;;22.14;37.38;100007.91;103956;1285;61267;-84
2023/04/14 03:52:04;;;;;;;;;;;;;;;22.14;37.14;100006.67;104088;1285;61378;-81
2023/04/14 03:54:31;;;;;;;;;;;;;;;22.14;37.22;100000.42;104158;1285;73410;-83
2023/04/14 03:56:57;;;;;;;;;;;;;;;22.15;37.21;100005.94;104414;1285;61384;-85
2023/04/14 03:59:26;;;;;;;;;;;;;;;22.15;37.31;100004.33;104363;1283;61682;-83
2023/04/14 04:01:51;;;;;;;;;;;;;;;22.15;37.40;100006.25;104353;1283;61489;-84
2023/04/14 04:04:17;;;;;;;;;;;;;;;22.15;37.24;100006.64;104165;1285;61390;-83
2023/04/14 04:06:42;;;;;;;;;;;;;;;22.15;37.28;100011.99;103974;1286;61310;-84
2023/04/14 04:09:08;;;;;;;;;;;;;;;22.16;37.22;100016.95;103725;1286;61385;-83
2023/04/14 04:11:34;;;;;;;;;;;;;;;22.16;37.25;100018.91;103802;1286;61323;-83
2023/04/14 04:14:00;;;;;;;;;;;;;;;22.16;37.21;100017.63;103934;1283;61299;-84
2023/04/14 04:16:26;;;;;;;;;;;;;;;22.15;37.26;100021.10;103767;1284;72486;-83
2023/04/14 04:18:52;;;;;;;;;;;;;;;22.16;37.25;100021.09;103940;1288;61429;-84
2023/04/14 04:21:19;;;;;;;;;;;;;;;22.15;37.19;100019.30;103793;1284;61394;-83
2023/04/14 04:23:47;;;;;;;;;;;;;;;22.15;37.30;100021.83;103813;1284;61377;-82
2023/04/14 04:26:12;;;;;;;;;;;;;;;22.15;37.26;100023.63;103914;1283;73515;-82
2023/04/14 04:28:38;;;;;;;;;;;;;;;22.15;37.11;100026.88;103899;1284;61378;-84
2023/04/14 04:31:03;;;;;;;;;;;;;;;22.15;37.20;100026.31;103914;1288;61304;-84
2023/04/14 04:33:29;;;;;;;;;;;;;;;22.15;37.30;100021.81;103841;1284;61778;-83
2023/04/14 04:35:55;;;;;;;;;;;;;;;22.14;37.29;100017.42;103915;1283;61356;-84
2023/04/14 04:38:21;;;;;;;;;;;;;;;22.14;37.17;100012.74;103845;1286;61489;-84
2023/04/14 04:40:46;;;;;;;;;;;;;;;22.14;37.15;100010.50;103747;1285;61787;-84
2023/04/14 04:43:12;;;;;;;;;;;;;;;22.14;37.23;100011.20;103941;1286;61436;-84
2023/04/14 04:45:37;;;;;;;;;;;;;;;22.13;37.28;100010.01;103746;1284;61463;-83
2023/04/14 04:48:03;;;;;;;;;;;;;;;22.13;37.26;100012.19;103913;1286;61404;-84
2023/04/14 04:50:28;;;;;;;;;;;;;;;22.13;37.19;100008.44;103850;1288;62588;-84
2023/04/14 04:52:54;;;;;;;;;;;;;;;22.13;37.19;100012.02;103829;1288;61407;-84
2023/04/14 04:55:19;;;;;;;;;;;;;;;22.13;37.25;100008.08;103782;1285;62573;-83
2023/04/14 04:57:45;;;;;;;;;;;;;;;22.13;37.23;100004.67;103844;1286;61397;-83
2023/04/14 05:00:11;;;;;;;;;;;;;;;22.12;37.22;99998.77;103757;1283;62565;-84
2023/04/14 05:02:36;;;;;;;;;;;;;;;22.12;37.22;99996.45;103864;1285;61337;-84
2023/04/14 05:05:02;;;;;;;;;;;;;;;22.12;37.21;99993.93;103768;1286;62075;-84
2023/04/14 05:07:28;;;;;;;;;;;;;;;22.12;37.18;99991.08;103712;1288;61256;-84
2023/04/14 05:09:53;;;;;;;;;;;;;;;22.12;37.26;99987.18;103826;1286;61417;-83
2023/04/14 05:12:19;;;;;;;;;;;;;;;22.12;37.24;99986.10;103869;1288;61294;-84
2023/04/14 05:14:45;;;;;;;;;;;;;;;22.12;37.15;99986.84;103794;1285;62124;-84
2023/04/14 05:17:10;;;;;;;;;;;;;;;22.12;37.13;99988.79;103799;1284;61447;-83
2023/04/14 05:19:36;;;;;;;;;;;;;;;22.12;37.14;99990.77;103729;1285;61394;-83
2023/04/14 05:22:01;;;;;;;;;;;;;;;22.12;37.19;99990.41;103944;1286;61354;-83
2023/04/14 05:24:27;;;;;;;;;;;;;;;22.12;37.12;99992.55;103752;1286;62467;-83
2023/04/14 05:26:52;;;;;;;;;;;;;;;22.12;37.24;99991.29;103788;1288;61505;-84
2023/04/14 05:29:18;;;;;;;;;;;;;;;22.12;37.28;99989.13;103940;1286;62651;-83
2023/04/14 05:31:43;;;;;;;;;;;;;;;22.13;37.12;99985.84;104318;1286;61193;-84
2023/04/14 05:34:09;;;;;;;;;;;;;;;22.13;37.20;99982.93;103997;1288;61308;-83
2023/04/14 05:36:35;;;;;;;;;;;;;;;22.14;37.14;99984.80;103809;1288;61429;-83
2023/04/14 05:39:00;;;;;;;;;;;;;;;22.14;37.19;99987.48;103885;1285;61388;-83
2023/04/14 05:41:25;;;;;;;;;;;;;;;22.15;37.16;99983.86;103802;1288;61359;-83
2023/04/14 05:43:51;;;;;;;;;;;;;;;22.16;37.04;99982.16;103989;1288;62052;-84
2023/04/14 05:46:16;;;;;;;;;;;;;;;22.17;37.29;99974.91;103776;1287;61294;-83
2023/04/14 05:48:42;;;;;;;;;;;;;;;22.17;37.18;99972.00;103728;1283;61395;-83
2023/04/14 05:51:07;;;;;;;;;;;;;;;22.18;37.19;99969.23;103771;1285;61929;-83
2023/04/14 05:53:33;;;;;;;;;;;;;;;22.19;37.22;99967.39;103979;1288;61406;-83
2023/04/14 05:55:59;;;;;;;;;;;;;;;22.19;37.24;99966.42;103794;1288;61410;-82
2023/04/14 05:58:25;;;;;;;;;;;;;;;22.20;37.34;99966.88;103827;1288;61367;-83
2023/04/14 06:00:50;;;;;;;;;;;;;;;22.21;37.15;99967.01;103825;1286;62464;-84
2023/04/14 06:03:16;;;;;;;;;;;;;;;22.22;37.21;99964.36;103740;1286;61842;-84
2023/04/14 06:05:42;;;;;;;;;;;;;;;22.23;37.34;99966.07;103929;1285;61429;-83
2023/04/14 06:08:08;;;;;;;;;;;;;;;22.24;37.21;99965.11;103984;1288;74251;-83
2023/04/14 06:10:34;;;;;;;;;;;;;;;22.25;37.40;99961.20;103811;1285;62487;-83
2023/04/14 06:13:00;;;;;;;;;;;;;;;22.26;37.47;99960.95;103784;1284;72852;-83
2023/04/14 06:15:28;;;;;;;;;;;;;;;22.27;37.34;99954.44;103755;1288;61380;-84
2023/04/14 06:17:54;;;;;;;;;;;;;;;22.28;37.35;99950.63;103776;1283;61404;-84
2023/04/14 06:20:20;;;;;;;;;;;;;;;22.29;37.49;99951.62;103966;1285;61372;-83
2023/04/14 06:22:48;;;;;;;;;;;;;;;22.30;37.45;99949.35;103992;1285;73545;-84
2023/04/14 06:25:13;;;;;;;;;;;;;;;22.30;37.52;99950.77;103849;1286;61385;-84
2023/04/14 06:27:40;;;;;;;;;;;;;;;22.32;37.58;99949.40;103871;1286;61384;-84
2023/04/14 06:30:06;;;;;;;;;;;;;;;22.33;37.47;99947.31;103914;1283;61394;-83
2023/04/14 06:32:33;;;;;;;;;;;;;;;22.34;37.54;99947.95;103754;1286;61377;-83
2023/04/14 06:34:58;;;;;;;;;;;;;;;22.34;37.61;99942.20;103916;1289;61328;-84
2023/04/14 06:37:24;;;;;;;;;;;;;;;22.34;37.51;99943.59;103775;1288;61461;-83
2023/04/14 06:39:50;;;;;;;;;;;;;;;22.35;37.64;99949.10;103852;1285;61401;-83
2023/04/14 06:42:16;;;;;;;;;;;;;;;22.36;37.59;99949.61;103942;1286;61335;-83
2023/04/14 06:44:41;;;;;;;;;;;;;;;22.36;37.62;99951.89;103943;1285;62488;-83
2023/04/14 06:47:08;;;;;;;;;;;;;;;22.37;37.78;99953.61;103893;1284;61388;-83
2023/04/14 06:49:33;;;;;;;;;;;;;;;22.37;37.59;99959.65;103810;1286;61380;-83
2023/04/14 06:51:59;;;;;;;;;;;;;;;22.37;37.60;99956.80;103923;1286;61391;-83
2023/04/14 06:54:25;;;;;;;;;;;;;;;22.38;37.73;99954.02;103761;1285;61407;-83
2023/04/14 06:56:51;;;;;;;;;;;;;;;22.39;37.66;99951.85;103863;1288;61330;-84
2023/04/14 06:59:16;;;;;;;;;;;;;;;22.39;37.72;99951.21;103736;1288;73606;-83
2023/04/14 07:01:42;;;;;;;;;;;;;;;22.40;37.76;99954.23;103744;1286;62465;-83
2023/04/14 07:04:08;;;;;;;;;;;;;;;22.40;37.72;99958.83;103336;1285;615320;-83
2023/04/14 07:06:34;;;;;;;;;;;;;;;22.41;37.72;99954.33;103791;1285;61365;-83
2023/04/14 07:09:00;;;;;;;;;;;;;;;22.41;37.71;99948.36;103793;1286;61282;-83
2023/04/14 07:11:25;;;;;;;;;;;;;;;22.42;37.85;99947.95;103900;1283;62547;-84
2023/04/14 07:13:51;;;;;;;;;;;;;;;22.42;37.88;99950.46;103847;1284;61386;-82
2023/04/14 07:16:16;;;;;;;;;;;;;;;22.42;37.88;99946.13;103791;1286;62513;-84
2023/04/14 07:18:42;;;;;;;;;;;;;;;22.43;37.85;99950.05;103725;1288;61464;-84
2023/04/14 07:21:07;;;;;;;;;;;;;;;22.43;37.77;99948.40;103722;1285;61381;-83
2023/04/14 07:23:33;;;;;;;;;;;;;;;22.43;37.79;99948.00;103754;1288;61397;-84
2023/04/14 07:25:58;;;;;;;;;;;;;;;22.44;37.86;99944.94;103958;1283;61421;-83
2023/04/14 07:28:24;;;;;;;;;;;;;;;22.43;37.84;99949.44;103870;1285;61720;-83
2023/04/14 07:30:51;;;;;;;;;;;;;;;22.44;37.94;99948.48;103868;1286;61349;-83
2023/04/14 07:33:21;;;;;;;;;;;;;;;22.44;37.78;99950.81;103869;1288;61323;-84
2023/04/14 07:35:49;;;;;;;;;;;;;;;22.44;37.98;99953.84;103784;1286;61264;-83
2023/04/14 07:38:15;;;;;;;;;;;;;;;22.45;37.87;99956.70;103916;1284;61393;-83
2023/04/14 07:40:43;;;;;;;;;;;;;;;22.44;37.88;99958.70;103938;1285;61382;-83
2023/04/14 07:43:09;;;;;;;;;;;;;;;22.44;37.79;99951.00;103855;1286;74360;-83
2023/04/14 07:45:34;;;;;;;;;;;;;;;22.43;37.86;99946.92;103867;1288;61393;-85
2023/04/14 07:48:00;;;;;;;;;;;;;;;22.43;37.93;99942.81;103864;1285;61482;-84
2023/04/14 07:50:25;;;;;;;;;;;;;;;22.43;37.94;99941.08;104102;1288;61381;-83
2023/04/14 07:52:52;;;;;;;;;;;;;;;22.42;38.02;99943.11;104178;1286;61286;-83
2023/04/14 07:55:17;;;;;;;;;;;;;;;22.42;37.96;99942.77;103849;1286;61391;-84
2023/04/14 07:57:42;;;;;;;;;;;;;;;22.42;37.88;99938.41;103916;1287;61409;-82
2023/04/14 08:00:08;;;;;;;;;;;;;;;22.43;37.91;99940.89;103932;1286;61383;-82
2023/04/14 08:02:34;;;;;;;;;;;;;;;22.42;38.02;99938.07;103770;1288;61407;-82
2023/04/14 08:04:59;;;;;;;;;;;;;;;22.42;38.05;99934.52;103769;1288;61470;-83
2023/04/14 08:07:28;;;;;;;;;;;;;;;22.41;37.98;99933.64;103835;1286;61413;-83
2023/04/14 08:09:53;;;;;;;;;;;;;;;22.41;38.01;99928.28;103926;1288;61759;-83
2023/04/14 08:12:19;;;;;;;;;;;;;;;22.41;38.02;99928.64;103891;1288;61839;-84
2023/04/14 08:14:46;;;;;;;;;;;;;;;22.41;38.04;99931.89;103767;1288;61442;-84
2023/04/14 08:17:12;;;;;;;;;;;;;;;22.41;38.01;99932.63;103856;1288;62584;-84
2023/04/14 08:19:40;;;;;;;;;;;;;;;22.40;38.02;99927.09;103793;1286;61323;-83
2023/04/14 08:22:05;;;;;;;;;;;;;;;22.41;37.95;99924.02;103745;1285;62452;-82
2023/04/14 08:24:31;;;;;;;;;;;;;;;22.40;37.99;99917.63;103761;1288;61403;-83
2023/04/14 08:26:57;;;;;;;;;;;;;;;22.40;38.15;99916.55;104004;1285;61809;-84
2023/04/14 08:29:23;;;;;;;;;;;;;;;22.40;37.95;99904.92;103952;1288;61393;-83
2023/04/14 08:31:48;;;;;;;;;;;;;;;22.40;38.06;99895.08;103851;1288;62373;-84
2023/04/14 08:34:14;;;;;;;;;;;;;;;22.40;38.14;99883.60;103791;1285;61771;-84
2023/04/14 08:36:40;;;;;;;;;;;;;;;22.40;38.08;99881.46;103917;1286;62460;-84
2023/04/14 08:39:05;;;;;;;;;;;;;;;22.40;38.07;99883.06;103872;1288;61391;-84
2023/04/14 08:41:35;;;;;;;;;;;;;;;22.39;38.00;99880.27;103768;1288;62615;-82
2023/04/14 08:44:01;;;;;;;;;;;;;;;22.39;38.13;99887.42;103949;1283;62551;-83
2023/04/14 08:46:27;;;;;;;;;;;;;;;22.39;38.09;99884.02;103708;1288;61257;-84
2023/04/14 08:48:55;;;;;;;;;;;;;;;22.39;38.05;99884.05;103811;1288;61446;-83
2023/04/14 08:51:27;;;;;;;;;;;;;;;22.39;38.18;99883.83;103810;1286;61410;-83
2023/04/14 08:53:52;;;;;;;;;;;;;;;22.39;38.09;99881.00;103971;1285;61291;-84
2023/04/14 08:56:18;;;;;;;;;;;;;;;22.39;38.08;99879.55;103898;1286;61838;-83
2023/04/14 08:58:44;;;;;;;;;;;;;;;22.39;38.17;99877.75;103916;1286;61355;-84
2023/04/14 09:01:10;;;;;;;;;;;;;;;22.39;38.12;99868.59;103724;1283;61484;-83
2023/04/14 09:03:38;;;;;;;;;;;;;;;22.39;38.14;99865.09;103734;1288;61444;-84
2023/04/14 09:06:04;;;;;;;;;;;;;;;22.39;38.17;99861.13;103851;1283;61301;-84
2023/04/14 09:08:32;;;;;;;;;;;;;;;22.39;38.13;99861.84;103882;1288;61426;-83
2023/04/14 09:11:02;;;;;;;;;;;;;;;22.38;38.07;99861.88;103845;1287;61388;-84
2023/04/14 09:13:27;;;;;;;;;;;;;;;22.39;38.16;99857.70;103757;1289;61383;-83
2023/04/14 09:15:56;;;;;;;;;;;;;;;22.39;38.15;99858.77;103899;1288;62645;-84
2023/04/14 09:18:22;;;;;;;;;;;;;;;22.39;38.08;99858.08;103891;1283;75161;-84
2023/04/14 09:20:47;;;;;;;;;;;;;;;22.39;38.20;99853.39;103935;1283;61327;-84
2023/04/14 09:23:13;;;;;;;;;;;;;;;22.38;38.02;99847.17;103877;1287;61451;-83
2023/04/14 09:25:39;;;;;;;;;;;;;;;22.39;38.13;99848.73;103795;1288;61312;-83
2023/04/14 09:28:04;;;;;;;;;;;;;;;22.38;38.18;99849.34;103824;1288;62521;-83
2023/04/14 09:30:30;;;;;;;;;;;;;;;22.39;38.19;99850.37;103899;1288;61393;-84
2023/04/14 09:32:56;;;;;;;;;;;;;;;22.38;38.08;99849.88;103691;1288;62620;-84
2023/04/14 09:35:21;;;;;;;;;;;;;;;22.38;38.08;99844.85;103749;1285;61438;-84
2023/04/14 09:37:47;;;;;;;;;;;;;;;22.39;38.12;99847.67;103745;1288;61364;-84
2023/04/14 09:40:27;;;;;;;;;;;;;;;22.38;38.03;99847.77;103746;1288;61418;-84
2023/04/14 09:42:54;;;;;;;;;;;;;;;22.38;38.18;99847.20;103804;1288;61418;-83
2023/04/14 09:45:21;;;;;;;;;;;;;;;22.38;38.25;99845.23;103864;1285;61994;-84
2023/04/14 09:47:47;;;;;;;;;;;;;;;22.38;38.22;99840.05;104027;1286;73178;-84
2023/04/14 09:50:13;;;;;;;;;;;;;;;22.38;38.19;99831.41;103982;1285;61471;-84
2023/04/14 09:52:43;;;;;;;;;;;;;;;22.39;38.22;99828.52;103690;1289;61345;-84
2023/04/14 09:55:09;;;;;;;;;;;;;;;22.38;38.27;99817.77;103946;1288;61481;-84
2023/04/14 09:57:36;;;;;;;;;;;;;;;22.39;38.19;99809.13;103799;1288;61371;-84
2023/04/14 10:00:04;;;;;;;;;;;;;;;22.39;38.13;99799.11;103712;1284;74468;-83
2023/04/14 10:02:38;;;;;;;;;;;;;;;22.39;38.21;99791.56;103810;1286;61267;-83
2023/04/14 10:05:05;;;;;;;;;;;;;;;22.38;38.20;99790.16;103736;1286;61359;-85
2023/04/14 10:07:30;;;;;;;;;;;;;;;22.38;38.21;99778.34;103863;1288;61730;-84
2023/04/14 10:09:57;;;;;;;;;;;;;;;22.38;38.17;99775.71;103857;1288;61470;-84
2023/04/14 10:12:22;;;;;;;;;;;;;;;22.38;38.28;99768.17;104212;1288;61512;-84
2023/04/14 10:14:47;;;;;;;;;;;;;;;22.38;38.21;99771.60;103792;1288;61390;-84
2023/04/14 10:17:13;;;;;;;;;;;;;;;22.38;38.12;99779.30;103745;1288;61400;-84
2023/04/14 10:19:39;;;;;;;;;;;;;;;22.37;38.14;99774.32;104099;1288;62581;-84
2023/04/14 10:22:05;;;;;;;;;;;;;;;22.37;38.13;99764.80;103916;1288;74443;-84
2023/04/14 10:24:32;;;;;;;;;;;;;;;22.37;38.20;99761.23;103876;1288;61477;-84
2023/04/14 10:26:58;;;;;;;;;;;;;;;22.37;38.14;99756.79;104115;1283;61388;-84
2023/04/14 10:29:23;;;;;;;;;;;;;;;22.36;38.10;99755.04;103981;1288;61288;-83
2023/04/14 10:31:50;;;;;;;;;;;;;;;22.37;38.21;99758.06;103884;1284;62640;-84
2023/04/14 10:34:15;;;;;;;;;;;;;;;22.36;38.11;99754.20;103928;1288;62514;-84
2023/04/14 10:36:43;;;;;;;;;;;;;;;22.36;38.11;99755.64;104041;1287;61354;-83
2023/04/14 10:39:09;;;;;;;;;;;;;;;22.36;38.25;99749.55;103895;1283;62227;-83
2023/04/14 10:41:46;;;;;;;;;;;;;;;22.35;37.98;99745.13;103975;1283;61435;-83
2023/04/14 10:44:28;;;;;;;;;;;;;;;22.35;38.16;99745.52;104090;1285;61285;-82
2023/04/14 10:46:58;;;;;;;;;;;;;;;22.34;38.16;99747.12;103751;1284;62921;-83
2023/04/14 10:49:24;;;;;;;;;;;;;;;22.34;38.01;99743.02;103929;1288;73489;-84
2023/04/14 10:51:50;;;;;;;;;;;;;;;22.34;38.17;99740.20;103914;1288;61351;-84
2023/04/14 10:54:18;;;;;;;;;;;;;;;22.34;38.18;99740.20;103982;1288;61384;-83
2023/04/14 10:57:06;;;;;;;;;;;;;;;22.34;38.20;99741.81;103905;1288;61699;-82
2023/04/14 10:59:32;;;;;;;;;;;;;;;22.34;38.23;99753.98;104065;1287;72376;-83
2023/04/14 11:01:57;;;;;;;;;;;;;;;22.34;38.12;99761.00;103928;1283;62595;-83
2023/04/14 11:04:23;;;;;;;;;;;;;;;22.34;38.14;99771.20;103925;1288;61787;-84
2023/04/14 11:06:53;;;;;;;;;;;;;;;22.34;38.10;99776.94;103957;1283;61358;-83
2023/04/14 11:09:22;;;;;;;;;;;;;;;22.34;38.16;99778.17;103946;1283;72599;-84
2023/04/14 11:11:47;;;;;;;;;;;;;;;22.34;38.14;99783.02;104014;1285;74498;-84
2023/04/14 11:14:14;;;;;;;;;;;;;;;22.34;38.09;99780.67;103929;1288;61305;-83
2023/04/14 11:16:40;;;;;;;;;;;;;;;22.34;38.18;99785.02;103740;1288;61413;-84
2023/04/14 11:19:15;;;;;;;;;;;;;;;22.34;38.21;99779.29;103917;1287;62302;-84
2023/04/14 11:21:49;;;;;;;;;;;;;;;22.34;38.18;99774.63;103873;1288;73456;-84
2023/04/14 11:24:15;;;;;;;;;;;;;;;22.34;38.08;99768.70;103736;1289;61404;-83
2023/04/14 11:26:43;;;;;;;;;;;;;;;22.33;38.24;99762.83;103800;1288;62479;-81
2023/04/14 11:29:08;;;;;;;;;;;;;;;22.34;38.29;99757.23;103881;1288;73599;-84
2023/04/14 11:31:34;;;;;;;;;;;;;;;22.34;38.35;99759.23;103845;1288;62628;-84
2023/04/14 11:34:02;;;;;;;;;;;;;;;22.33;38.31;99770.52;104011;1283;61416;-84
2023/04/14 11:36:28;;;;;;;;;;;;;;;22.34;38.32;99774.61;103890;1288;61375;-84
2023/04/14 11:38:53;;;;;;;;;;;;;;;22.34;38.19;99779.10;104016;1287;62666;-83
2023/04/14 11:41:19;;;;;;;;;;;;;;;22.34;38.21;99776.92;103959;1283;61377;-83
2023/04/14 11:43:47;;;;;;;;;;;;;;;22.34;38.24;99775.89;103981;1288;61374;-84
2023/04/14 11:46:14;;;;;;;;;;;;;;;22.33;38.28;99784.86;103951;1283;61732;-84
2023/04/14 11:48:40;;;;;;;;;;;;;;;22.34;38.27;99793.08;103867;1296;61389;-84
2023/04/14 11:51:05;;;;;;;;;;;;;;;22.34;38.31;99801.52;103849;1285;61374;-85
2023/04/14 11:53:32;;;;;;;;;;;;;;;22.33;38.25;99805.84;103923;1288;61529;-84
2023/04/14 11:55:58;;;;;;;;;;;;;;;22.34;38.26;99802.76;103978;1286;61362;-84
2023/04/14 11:58:24;;;;;;;;;;;;;;;22.34;38.30;99799.02;103853;1289;62429;-84
2023/04/14 12:00:50;;;;;;;;;;;;;;;22.33;38.27;99798.69;104077;1288;61381;-83
2023/04/14 12:03:15;;;;;;;;;;;;;;;22.34;38.30;99800.97;103840;1288;75048;-84
2023/04/14 12:05:41;;;;;;;;;;;;;;;22.33;38.23;99800.63;103841;1283;62617;-83
2023/04/14 12:08:07;;;;;;;;;;;;;;;22.33;38.31;99793.11;103962;1289;61378;-84
2023/04/14 12:10:33;;;;;;;;;;;;;;;22.33;38.31;99792.42;103909;1289;61377;-84
2023/04/14 12:13:03;;;;;;;;;;;;;;;22.33;38.33;99793.84;103901;1288;61374;-83
2023/04/14 12:15:29;;;;;;;;;;;;;;;22.33;38.33;99787.40;104054;1287;61313;-83
2023/04/14 12:17:55;;;;;;;;;;;;;;;22.33;38.27;99782.19;103993;1283;61269;-83
2023/04/14 12:20:21;;;;;;;;;;;;;;;22.33;38.28;99775.59;103766;1288;61410;-83
2023/04/14 12:22:48;;;;;;;;;;;;;;;22.33;38.40;99767.88;103802;1283;62481;-83
2023/04/14 12:25:13;;;;;;;;;;;;;;;22.33;38.30;99756.39;103960;1289;61380;-84
2023/04/14 12:27:39;;;;;;;;;;;;;;;22.33;38.34;99744.17;103946;1286;61704;-84
2023/04/14 12:30:05;;;;;;;;;;;;;;;22.34;38.35;99729.83;104083;1284;61431;-83